sensor_id;sensor_type;location;lat;lon;timestamp;P1;durP1;ratioP1;P2;durP2;ratioP2
7334;SDS011;3708;42.632;23.378;2023-02-28T00:00:30;19.50;;;13.10;;
7334;SDS011;3708;42.632;23.378;2023-02-28T00:03:04;21.73;;;14.40;;
7334;SDS011;3708;42.632;23.378;2023-02-28T00:05:31;21.37;;;14.03;;
7334;SDS011;3708;42.632;23.378;2023-02-28T00:08:00;21.80;;;14.00;;
7334;SDS011;3708;42.632;23.378;2023-02-28T00:10:28;21.07;;;13.70;;
7334;SDS011;3708;42.632;23.378;2023-02-28T00:12:59;17.80;;;12.13;;
7334;SDS011;3708;42.632;23.378;2023-02-28T00:15:28;22.17;;;13.80;;
7334;SDS011;3708;42.632;23.378;2023-02-28T00:17:56;20.17;;;14.13;;
7334;SDS011;3708;42.632;23.378;2023-02-28T00:20:24;17.77;;;13.80;;
7334;SDS011;3708;42.632;23.378;2023-02-28T00:22:54;17.17;;;12.10;;
7334;SDS011;3708;42.632;23.378;2023-02-28T00:25:25;21.20;;;12.60;;
7334;SDS011;3708;42.632;23.378;2023-02-28T00:27:52;15.83;;;11.73;;
7334;SDS011;3708;42.632;23.378;2023-02-28T00:30:20;19.60;;;12.70;;
7334;SDS011;3708;42.632;23.378;2023-02-28T00:32:48;18.50;;;11.97;;
7334;SDS011;3708;42.632;23.378;2023-02-28T00:35:17;20.37;;;13.07;;
7334;SDS011;3708;42.632;23.378;2023-02-28T00:37:45;18.20;;;12.17;;
7334;SDS011;3708;42.632;23.378;2023-02-28T00:40:14;16.77;;;12.13;;
7334;SDS011;3708;42.632;23.378;2023-02-28T00:42:42;21.03;;;13.60;;
7334;SDS011;3708;42.632;23.378;2023-02-28T00:45:09;20.83;;;13.63;;
7334;SDS011;3708;42.632;23.378;2023-02-28T00:47:38;19.60;;;13.30;;
7334;SDS011;3708;42.632;23.378;2023-02-28T00:50:05;19.00;;;12.87;;
7334;SDS011;3708;42.632;23.378;2023-02-28T00:52:33;21.37;;;13.93;;
7334;SDS011;3708;42.632;23.378;2023-02-28T00:55:02;23.13;;;14.37;;
7334;SDS011;3708;42.632;23.378;2023-02-28T00:57:29;25.47;;;16.63;;
7334;SDS011;3708;42.632;23.378;2023-02-28T00:59:55;28.50;;;16.43;;
7334;SDS011;3708;42.632;23.378;2023-02-28T01:02:23;24.03;;;16.40;;
7334;SDS011;3708;42.632;23.378;2023-02-28T01:04:50;23.17;;;15.50;;
7334;SDS011;3708;42.632;23.378;2023-02-28T01:07:17;23.97;;;14.20;;
7334;SDS011;3708;42.632;23.378;2023-02-28T01:09:46;22.30;;;14.53;;
7334;SDS011;3708;42.632;23.378;2023-02-28T01:12:15;20.10;;;13.03;;
7334;SDS011;3708;42.632;23.378;2023-02-28T01:14:42;20.77;;;13.43;;
7334;SDS011;3708;42.632;23.378;2023-02-28T01:17:09;21.13;;;14.33;;
7334;SDS011;3708;42.632;23.378;2023-02-28T01:19:36;22.37;;;14.93;;
7334;SDS011;3708;42.632;23.378;2023-02-28T01:22:05;19.60;;;13.60;;
7334;SDS011;3708;42.632;23.378;2023-02-28T01:24:32;21.90;;;14.90;;
7334;SDS011;3708;42.632;23.378;2023-02-28T01:26:59;22.17;;;15.33;;
7334;SDS011;3708;42.632;23.378;2023-02-28T01:29:28;26.43;;;16.20;;
7334;SDS011;3708;42.632;23.378;2023-02-28T01:31:55;24.33;;;15.47;;
7334;SDS011;3708;42.632;23.378;2023-02-28T01:34:22;26.50;;;16.47;;
7334;SDS011;3708;42.632;23.378;2023-02-28T01:36:49;21.97;;;15.93;;
7334;SDS011;3708;42.632;23.378;2023-02-28T01:39:19;26.77;;;17.53;;
7334;SDS011;3708;42.632;23.378;2023-02-28T01:41:47;26.00;;;16.47;;
7334;SDS011;3708;42.632;23.378;2023-02-28T01:47:22;24.17;;;16.23;;
7334;SDS011;3708;42.632;23.378;2023-02-28T01:49:52;25.70;;;15.43;;
7334;SDS011;3708;42.632;23.378;2023-02-28T01:52:19;20.77;;;14.90;;
7334;SDS011;3708;42.632;23.378;2023-02-28T01:54:47;23.63;;;16.33;;
7334;SDS011;3708;42.632;23.378;2023-02-28T01:57:21;23.97;;;15.87;;
7334;SDS011;3708;42.632;23.378;2023-02-28T01:59:54;22.83;;;15.37;;
7334;SDS011;3708;42.632;23.378;2023-02-28T02:02:27;29.97;;;17.10;;
7334;SDS011;3708;42.632;23.378;2023-02-28T02:04:56;28.70;;;17.40;;
7334;SDS011;3708;42.632;23.378;2023-02-28T02:07:29;28.67;;;17.53;;
7334;SDS011;3708;42.632;23.378;2023-02-28T02:10:00;27.17;;;17.97;;
7334;SDS011;3708;42.632;23.378;2023-02-28T02:12:46;32.93;;;19.40;;
7334;SDS011;3708;42.632;23.378;2023-02-28T02:15:34;44.57;;;20.57;;
7334;SDS011;3708;42.632;23.378;2023-02-28T02:18:13;33.63;;;19.00;;
7334;SDS011;3708;42.632;23.378;2023-02-28T02:21:01;32.63;;;19.87;;
7334;SDS011;3708;42.632;23.378;2023-02-28T02:24:11;34.20;;;19.47;;
7334;SDS011;3708;42.632;23.378;2023-02-28T02:27:07;30.60;;;18.93;;
7334;SDS011;3708;42.632;23.378;2023-02-28T02:29:51;33.77;;;19.67;;
7334;SDS011;3708;42.632;23.378;2023-02-28T02:32:47;33.03;;;18.37;;
7334;SDS011;3708;42.632;23.378;2023-02-28T02:35:40;30.03;;;18.97;;
7334;SDS011;3708;42.632;23.378;2023-02-28T02:38:15;31.60;;;19.30;;
7334;SDS011;3708;42.632;23.378;2023-02-28T02:40:50;47.93;;;20.77;;
7334;SDS011;3708;42.632;23.378;2023-02-28T02:43:22;43.73;;;18.47;;
7334;SDS011;3708;42.632;23.378;2023-02-28T02:45:55;43.47;;;20.37;;
7334;SDS011;3708;42.632;23.378;2023-02-28T02:48:27;32.50;;;17.73;;
7334;SDS011;3708;42.632;23.378;2023-02-28T02:51:00;32.67;;;18.53;;
7334;SDS011;3708;42.632;23.378;2023-02-28T02:53:32;32.93;;;17.40;;
7334;SDS011;3708;42.632;23.378;2023-02-28T02:56:02;40.87;;;19.40;;
7334;SDS011;3708;42.632;23.378;2023-02-28T02:58:35;33.10;;;19.73;;
7334;SDS011;3708;42.632;23.378;2023-02-28T03:01:07;33.97;;;20.63;;
7334;SDS011;3708;42.632;23.378;2023-02-28T03:03:36;32.93;;;18.83;;
7334;SDS011;3708;42.632;23.378;2023-02-28T03:06:05;69.93;;;21.73;;
7334;SDS011;3708;42.632;23.378;2023-02-28T03:08:34;31.80;;;18.60;;
7334;SDS011;3708;42.632;23.378;2023-02-28T03:11:03;34.10;;;19.67;;
7334;SDS011;3708;42.632;23.378;2023-02-28T03:13:41;28.73;;;18.30;;
7334;SDS011;3708;42.632;23.378;2023-02-28T03:16:28;32.73;;;19.57;;
7334;SDS011;3708;42.632;23.378;2023-02-28T03:22:08;30.37;;;19.03;;
7334;SDS011;3708;42.632;23.378;2023-02-28T03:24:45;34.87;;;20.23;;
7334;SDS011;3708;42.632;23.378;2023-02-28T03:27:19;35.83;;;19.87;;
7334;SDS011;3708;42.632;23.378;2023-02-28T03:29:50;33.77;;;21.37;;
7334;SDS011;3708;42.632;23.378;2023-02-28T03:32:26;43.30;;;21.43;;
7334;SDS011;3708;42.632;23.378;2023-02-28T03:34:56;37.93;;;21.17;;
7334;SDS011;3708;42.632;23.378;2023-02-28T03:37:33;37.60;;;22.10;;
7334;SDS011;3708;42.632;23.378;2023-02-28T03:40:05;44.93;;;21.30;;
7334;SDS011;3708;42.632;23.378;2023-02-28T03:42:38;34.83;;;20.97;;
7334;SDS011;3708;42.632;23.378;2023-02-28T03:45:09;35.10;;;21.10;;
7334;SDS011;3708;42.632;23.378;2023-02-28T03:47:41;110.53;;;22.73;;
7334;SDS011;3708;42.632;23.378;2023-02-28T03:50:14;41.10;;;22.50;;
7334;SDS011;3708;42.632;23.378;2023-02-28T03:52:50;39.83;;;21.27;;
7334;SDS011;3708;42.632;23.378;2023-02-28T03:55:26;45.60;;;22.23;;
7334;SDS011;3708;42.632;23.378;2023-02-28T03:57:58;37.13;;;22.03;;
7334;SDS011;3708;42.632;23.378;2023-02-28T04:00:32;38.83;;;23.30;;
7334;SDS011;3708;42.632;23.378;2023-02-28T04:03:02;39.40;;;22.00;;
7334;SDS011;3708;42.632;23.378;2023-02-28T04:05:39;46.90;;;23.17;;
7334;SDS011;3708;42.632;23.378;2023-02-28T04:08:17;41.30;;;22.67;;
7334;SDS011;3708;42.632;23.378;2023-02-28T04:10:48;42.00;;;22.57;;
7334;SDS011;3708;42.632;23.378;2023-02-28T04:13:21;163.53;;;28.90;;
7334;SDS011;3708;42.632;23.378;2023-02-28T04:15:48;100.97;;;25.53;;
7334;SDS011;3708;42.632;23.378;2023-02-28T04:18:16;41.93;;;23.17;;
7334;SDS011;3708;42.632;23.378;2023-02-28T04:20:43;56.43;;;24.77;;
7334;SDS011;3708;42.632;23.378;2023-02-28T04:23:11;89.90;;;26.17;;
7334;SDS011;3708;42.632;23.378;2023-02-28T04:26:00;81.60;;;26.53;;
7334;SDS011;3708;42.632;23.378;2023-02-28T04:28:31;61.23;;;25.20;;
7334;SDS011;3708;42.632;23.378;2023-02-28T04:30:58;67.13;;;23.43;;
7334;SDS011;3708;42.632;23.378;2023-02-28T04:33:28;65.97;;;24.30;;
7334;SDS011;3708;42.632;23.378;2023-02-28T04:36:00;51.50;;;23.50;;
7334;SDS011;3708;42.632;23.378;2023-02-28T04:38:28;227.23;;;30.67;;
7334;SDS011;3708;42.632;23.378;2023-02-28T04:40:56;54.13;;;21.43;;
7334;SDS011;3708;42.632;23.378;2023-02-28T04:43:25;82.27;;;22.37;;
7334;SDS011;3708;42.632;23.378;2023-02-28T04:45:53;56.60;;;21.10;;
7334;SDS011;3708;42.632;23.378;2023-02-28T04:48:22;38.53;;;20.13;;
7334;SDS011;3708;42.632;23.378;2023-02-28T04:50:49;43.07;;;20.97;;
7334;SDS011;3708;42.632;23.378;2023-02-28T04:53:16;76.13;;;20.00;;
7334;SDS011;3708;42.632;23.378;2023-02-28T04:55:44;183.77;;;25.20;;
7334;SDS011;3708;42.632;23.378;2023-02-28T04:58:12;44.70;;;19.97;;
7334;SDS011;3708;42.632;23.378;2023-02-28T05:00:40;87.83;;;20.43;;
7334;SDS011;3708;42.632;23.378;2023-02-28T05:03:06;372.73;;;33.50;;
7334;SDS011;3708;42.632;23.378;2023-02-28T05:05:34;60.57;;;22.80;;
7334;SDS011;3708;42.632;23.378;2023-02-28T05:08:01;117.90;;;25.03;;
7334;SDS011;3708;42.632;23.378;2023-02-28T05:10:28;57.83;;;21.80;;
7334;SDS011;3708;42.632;23.378;2023-02-28T05:12:55;45.23;;;20.23;;
7334;SDS011;3708;42.632;23.378;2023-02-28T05:15:23;91.10;;;22.47;;
7334;SDS011;3708;42.632;23.378;2023-02-28T05:17:50;112.17;;;28.23;;
7334;SDS011;3708;42.632;23.378;2023-02-28T05:20:18;38.20;;;21.77;;
7334;SDS011;3708;42.632;23.378;2023-02-28T05:22:46;39.20;;;22.27;;
7334;SDS011;3708;42.632;23.378;2023-02-28T05:25:18;47.07;;;22.37;;
7334;SDS011;3708;42.632;23.378;2023-02-28T05:27:46;33.40;;;19.10;;
7334;SDS011;3708;42.632;23.378;2023-02-28T05:30:16;45.97;;;22.07;;
7334;SDS011;3708;42.632;23.378;2023-02-28T05:32:49;217.07;;;26.07;;
7334;SDS011;3708;42.632;23.378;2023-02-28T05:35:17;43.87;;;20.27;;
7334;SDS011;3708;42.632;23.378;2023-02-28T05:37:43;37.40;;;20.27;;
7334;SDS011;3708;42.632;23.378;2023-02-28T05:40:11;43.20;;;20.67;;
7334;SDS011;3708;42.632;23.378;2023-02-28T05:42:38;28.93;;;18.60;;
7334;SDS011;3708;42.632;23.378;2023-02-28T05:45:05;41.97;;;20.73;;
7334;SDS011;3708;42.632;23.378;2023-02-28T05:47:33;33.87;;;21.40;;
7334;SDS011;3708;42.632;23.378;2023-02-28T05:50:02;37.83;;;22.07;;
7334;SDS011;3708;42.632;23.378;2023-02-28T05:52:29;34.03;;;20.50;;
7334;SDS011;3708;42.632;23.378;2023-02-28T05:54:56;32.67;;;20.13;;
7334;SDS011;3708;42.632;23.378;2023-02-28T05:57:23;31.70;;;20.57;;
7334;SDS011;3708;42.632;23.378;2023-02-28T05:59:50;32.43;;;20.33;;
7334;SDS011;3708;42.632;23.378;2023-02-28T06:02:17;31.33;;;19.60;;
7334;SDS011;3708;42.632;23.378;2023-02-28T06:04:44;33.17;;;20.20;;
7334;SDS011;3708;42.632;23.378;2023-02-28T06:07:12;31.30;;;19.90;;
7334;SDS011;3708;42.632;23.378;2023-02-28T06:09:40;31.27;;;19.77;;
7334;SDS011;3708;42.632;23.378;2023-02-28T06:12:07;35.10;;;20.80;;
7334;SDS011;3708;42.632;23.378;2023-02-28T06:14:35;32.53;;;18.97;;
7334;SDS011;3708;42.632;23.378;2023-02-28T06:17:02;32.97;;;20.97;;
7334;SDS011;3708;42.632;23.378;2023-02-28T06:19:29;31.67;;;20.07;;
7334;SDS011;3708;42.632;23.378;2023-02-28T06:21:56;30.90;;;19.63;;
7334;SDS011;3708;42.632;23.378;2023-02-28T06:24:26;36.07;;;22.67;;
7334;SDS011;3708;42.632;23.378;2023-02-28T06:26:54;34.60;;;20.47;;
7334;SDS011;3708;42.632;23.378;2023-02-28T06:29:20;35.70;;;22.27;;
7334;SDS011;3708;42.632;23.378;2023-02-28T06:31:48;37.40;;;20.83;;
7334;SDS011;3708;42.632;23.378;2023-02-28T06:34:15;35.30;;;21.37;;
7334;SDS011;3708;42.632;23.378;2023-02-28T06:36:42;33.00;;;19.67;;
7334;SDS011;3708;42.632;23.378;2023-02-28T06:39:09;29.77;;;19.10;;
7334;SDS011;3708;42.632;23.378;2023-02-28T06:41:37;32.37;;;20.00;;
7334;SDS011;3708;42.632;23.378;2023-02-28T06:44:05;30.37;;;19.07;;
7334;SDS011;3708;42.632;23.378;2023-02-28T06:46:38;28.80;;;19.43;;
7334;SDS011;3708;42.632;23.378;2023-02-28T06:49:05;27.83;;;18.07;;
7334;SDS011;3708;42.632;23.378;2023-02-28T06:51:34;26.07;;;18.83;;
7334;SDS011;3708;42.632;23.378;2023-02-28T06:54:02;30.30;;;18.93;;
7334;SDS011;3708;42.632;23.378;2023-02-28T06:56:29;26.93;;;17.77;;
7334;SDS011;3708;42.632;23.378;2023-02-28T06:58:57;26.60;;;17.90;;
7334;SDS011;3708;42.632;23.378;2023-02-28T07:01:24;30.37;;;19.90;;
7334;SDS011;3708;42.632;23.378;2023-02-28T07:03:50;25.67;;;17.63;;
7334;SDS011;3708;42.632;23.378;2023-02-28T07:06:18;26.83;;;18.20;;
7334;SDS011;3708;42.632;23.378;2023-02-28T07:08:45;29.30;;;18.20;;
7334;SDS011;3708;42.632;23.378;2023-02-28T07:11:12;27.00;;;16.30;;
7334;SDS011;3708;42.632;23.378;2023-02-28T07:13:39;33.27;;;18.77;;
7334;SDS011;3708;42.632;23.378;2023-02-28T07:16:09;29.93;;;18.47;;
7334;SDS011;3708;42.632;23.378;2023-02-28T07:18:37;28.87;;;17.33;;
7334;SDS011;3708;42.632;23.378;2023-02-28T07:21:04;25.37;;;17.93;;
7334;SDS011;3708;42.632;23.378;2023-02-28T07:23:32;31.83;;;17.77;;
7334;SDS011;3708;42.632;23.378;2023-02-28T07:25:59;26.20;;;17.23;;
7334;SDS011;3708;42.632;23.378;2023-02-28T07:28:26;28.97;;;17.43;;
7334;SDS011;3708;42.632;23.378;2023-02-28T07:30:53;25.67;;;15.57;;
7334;SDS011;3708;42.632;23.378;2023-02-28T07:33:21;30.73;;;17.10;;
7334;SDS011;3708;42.632;23.378;2023-02-28T07:35:49;26.93;;;16.77;;
7334;SDS011;3708;42.632;23.378;2023-02-28T07:38:16;29.00;;;17.90;;
7334;SDS011;3708;42.632;23.378;2023-02-28T07:40:42;33.43;;;16.67;;
7334;SDS011;3708;42.632;23.378;2023-02-28T07:43:09;29.40;;;17.90;;
7334;SDS011;3708;42.632;23.378;2023-02-28T07:45:36;31.87;;;17.93;;
7334;SDS011;3708;42.632;23.378;2023-02-28T07:48:03;32.60;;;18.87;;
7334;SDS011;3708;42.632;23.378;2023-02-28T07:50:31;33.73;;;18.03;;
7334;SDS011;3708;42.632;23.378;2023-02-28T07:52:59;37.33;;;17.77;;
7334;SDS011;3708;42.632;23.378;2023-02-28T07:55:26;30.27;;;18.70;;
7334;SDS011;3708;42.632;23.378;2023-02-28T07:57:53;31.53;;;18.07;;
7334;SDS011;3708;42.632;23.378;2023-02-28T08:00:20;35.43;;;18.67;;
7334;SDS011;3708;42.632;23.378;2023-02-28T08:02:47;34.10;;;17.50;;
7334;SDS011;3708;42.632;23.378;2023-02-28T08:05:14;27.77;;;18.03;;
7334;SDS011;3708;42.632;23.378;2023-02-28T08:07:42;33.17;;;17.87;;
7334;SDS011;3708;42.632;23.378;2023-02-28T08:10:10;25.50;;;16.63;;
7334;SDS011;3708;42.632;23.378;2023-02-28T08:12:37;26.23;;;17.03;;
7334;SDS011;3708;42.632;23.378;2023-02-28T08:15:04;26.53;;;16.03;;
7334;SDS011;3708;42.632;23.378;2023-02-28T08:17:31;27.33;;;17.80;;
7334;SDS011;3708;42.632;23.378;2023-02-28T08:19:58;32.87;;;17.17;;
7334;SDS011;3708;42.632;23.378;2023-02-28T08:22:25;29.80;;;17.10;;
7334;SDS011;3708;42.632;23.378;2023-02-28T08:24:53;31.63;;;18.07;;
7334;SDS011;3708;42.632;23.378;2023-02-28T08:27:20;33.23;;;16.57;;
7334;SDS011;3708;42.632;23.378;2023-02-28T08:29:46;33.30;;;16.97;;
7334;SDS011;3708;42.632;23.378;2023-02-28T08:32:13;27.47;;;15.87;;
7334;SDS011;3708;42.632;23.378;2023-02-28T08:34:40;29.07;;;16.50;;
7334;SDS011;3708;42.632;23.378;2023-02-28T08:37:07;31.17;;;17.10;;
7334;SDS011;3708;42.632;23.378;2023-02-28T08:39:34;24.90;;;16.20;;
7334;SDS011;3708;42.632;23.378;2023-02-28T08:42:03;29.63;;;16.17;;
7334;SDS011;3708;42.632;23.378;2023-02-28T08:44:30;28.70;;;14.63;;
7334;SDS011;3708;42.632;23.378;2023-02-28T08:46:57;23.50;;;15.47;;
7334;SDS011;3708;42.632;23.378;2023-02-28T08:49:24;24.60;;;14.57;;
7334;SDS011;3708;42.632;23.378;2023-02-28T08:51:50;25.67;;;14.63;;
7334;SDS011;3708;42.632;23.378;2023-02-28T08:54:17;31.50;;;15.93;;
7334;SDS011;3708;42.632;23.378;2023-02-28T08:56:44;25.97;;;15.07;;
7334;SDS011;3708;42.632;23.378;2023-02-28T08:59:13;30.87;;;15.13;;
7334;SDS011;3708;42.632;23.378;2023-02-28T09:01:40;21.10;;;13.43;;
7334;SDS011;3708;42.632;23.378;2023-02-28T09:04:08;37.20;;;20.80;;
7334;SDS011;3708;42.632;23.378;2023-02-28T09:06:37;23.00;;;12.67;;
7334;SDS011;3708;42.632;23.378;2023-02-28T09:09:04;25.03;;;11.70;;
7334;SDS011;3708;42.632;23.378;2023-02-28T09:11:32;24.70;;;10.80;;
7334;SDS011;3708;42.632;23.378;2023-02-28T09:13:59;29.50;;;13.60;;
7334;SDS011;3708;42.632;23.378;2023-02-28T09:16:30;25.03;;;10.80;;
7334;SDS011;3708;42.632;23.378;2023-02-28T09:18:57;18.40;;;10.60;;
7334;SDS011;3708;42.632;23.378;2023-02-28T09:21:24;27.07;;;11.70;;
7334;SDS011;3708;42.632;23.378;2023-02-28T09:23:51;22.47;;;10.87;;
7334;SDS011;3708;42.632;23.378;2023-02-28T09:26:18;29.53;;;11.00;;
7334;SDS011;3708;42.632;23.378;2023-02-28T09:28:47;52.20;;;22.37;;
7334;SDS011;3708;42.632;23.378;2023-02-28T09:31:15;35.10;;;13.57;;
7334;SDS011;3708;42.632;23.378;2023-02-28T09:33:48;19.03;;;8.83;;
7334;SDS011;3708;42.632;23.378;2023-02-28T09:36:15;24.60;;;10.43;;
7334;SDS011;3708;42.632;23.378;2023-02-28T09:38:42;31.20;;;13.00;;
7334;SDS011;3708;42.632;23.378;2023-02-28T09:41:11;24.50;;;14.13;;
7334;SDS011;3708;42.632;23.378;2023-02-28T09:43:43;31.13;;;16.73;;
7334;SDS011;3708;42.632;23.378;2023-02-28T09:46:14;27.47;;;11.67;;
7334;SDS011;3708;42.632;23.378;2023-02-28T09:48:56;26.00;;;11.13;;
7334;SDS011;3708;42.632;23.378;2023-02-28T09:51:30;25.20;;;11.17;;
7334;SDS011;3708;42.632;23.378;2023-02-28T09:54:04;24.07;;;9.73;;
7334;SDS011;3708;42.632;23.378;2023-02-28T09:56:32;20.83;;;9.67;;
7334;SDS011;3708;42.632;23.378;2023-02-28T09:59:05;23.33;;;10.47;;
7334;SDS011;3708;42.632;23.378;2023-02-28T10:01:43;20.23;;;9.13;;
7334;SDS011;3708;42.632;23.378;2023-02-28T10:04:26;24.00;;;10.27;;
7334;SDS011;3708;42.632;23.378;2023-02-28T10:07:06;24.60;;;10.53;;
7334;SDS011;3708;42.632;23.378;2023-02-28T10:09:45;23.77;;;10.43;;
7334;SDS011;3708;42.632;23.378;2023-02-28T10:12:15;22.77;;;10.57;;
7334;SDS011;3708;42.632;23.378;2023-02-28T10:14:43;24.87;;;11.10;;
7334;SDS011;3708;42.632;23.378;2023-02-28T10:17:14;24.53;;;12.53;;
7334;SDS011;3708;42.632;23.378;2023-02-28T10:19:49;24.90;;;13.00;;
7334;SDS011;3708;42.632;23.378;2023-02-28T10:22:27;31.10;;;16.03;;
7334;SDS011;3708;42.632;23.378;2023-02-28T10:24:58;45.03;;;21.87;;
7334;SDS011;3708;42.632;23.378;2023-02-28T10:27:29;48.60;;;20.67;;
7334;SDS011;3708;42.632;23.378;2023-02-28T10:29:58;34.83;;;14.40;;
7334;SDS011;3708;42.632;23.378;2023-02-28T10:32:27;35.77;;;16.07;;
7334;SDS011;3708;42.632;23.378;2023-02-28T10:34:59;22.27;;;13.73;;
7334;SDS011;3708;42.632;23.378;2023-02-28T10:37:28;41.90;;;19.23;;
7334;SDS011;3708;42.632;23.378;2023-02-28T10:39:56;25.37;;;13.87;;
7334;SDS011;3708;42.632;23.378;2023-02-28T10:42:24;36.23;;;17.07;;
7334;SDS011;3708;42.632;23.378;2023-02-28T10:45:04;25.03;;;12.70;;
7334;SDS011;3708;42.632;23.378;2023-02-28T10:47:33;22.93;;;10.63;;
7334;SDS011;3708;42.632;23.378;2023-02-28T10:50:06;18.07;;;8.53;;
7334;SDS011;3708;42.632;23.378;2023-02-28T10:52:52;20.27;;;9.67;;
7334;SDS011;3708;42.632;23.378;2023-02-28T10:55:21;23.50;;;10.03;;
7334;SDS011;3708;42.632;23.378;2023-02-28T10:57:50;20.27;;;9.93;;
7334;SDS011;3708;42.632;23.378;2023-02-28T11:00:19;17.43;;;10.17;;
7334;SDS011;3708;42.632;23.378;2023-02-28T11:02:47;27.73;;;9.50;;
7334;SDS011;3708;42.632;23.378;2023-02-28T11:05:29;18.97;;;9.77;;
7334;SDS011;3708;42.632;23.378;2023-02-28T11:07:59;20.40;;;10.47;;
7334;SDS011;3708;42.632;23.378;2023-02-28T11:10:32;18.93;;;9.30;;
7334;SDS011;3708;42.632;23.378;2023-02-28T11:12:59;18.00;;;9.77;;
7334;SDS011;3708;42.632;23.378;2023-02-28T11:15:28;20.37;;;10.70;;
7334;SDS011;3708;42.632;23.378;2023-02-28T11:17:58;20.40;;;10.00;;
7334;SDS011;3708;42.632;23.378;2023-02-28T11:20:28;20.00;;;10.97;;
7334;SDS011;3708;42.632;23.378;2023-02-28T11:22:58;27.67;;;11.20;;
7334;SDS011;3708;42.632;23.378;2023-02-28T11:25:29;27.00;;;12.03;;
7334;SDS011;3708;42.632;23.378;2023-02-28T11:27:58;20.47;;;10.97;;
7334;SDS011;3708;42.632;23.378;2023-02-28T11:30:31;17.80;;;11.30;;
7334;SDS011;3708;42.632;23.378;2023-02-28T11:33:00;20.00;;;11.43;;
7334;SDS011;3708;42.632;23.378;2023-02-28T11:35:30;19.70;;;10.33;;
7334;SDS011;3708;42.632;23.378;2023-02-28T11:38:00;27.20;;;10.97;;
7334;SDS011;3708;42.632;23.378;2023-02-28T11:40:47;20.37;;;9.90;;
7334;SDS011;3708;42.632;23.378;2023-02-28T11:43:26;21.73;;;9.33;;
7334;SDS011;3708;42.632;23.378;2023-02-28T11:46:06;15.77;;;9.57;;
7334;SDS011;3708;42.632;23.378;2023-02-28T11:48:48;22.47;;;9.57;;
7334;SDS011;3708;42.632;23.378;2023-02-28T11:51:27;21.57;;;9.07;;
7334;SDS011;3708;42.632;23.378;2023-02-28T11:54:02;19.63;;;9.27;;
7334;SDS011;3708;42.632;23.378;2023-02-28T11:56:47;16.70;;;9.20;;
7334;SDS011;3708;42.632;23.378;2023-02-28T12:05:10;21.53;;;10.57;;
7334;SDS011;3708;42.632;23.378;2023-02-28T12:07:58;22.47;;;10.17;;
7334;SDS011;3708;42.632;23.378;2023-02-28T12:10:36;23.03;;;11.13;;
7334;SDS011;3708;42.632;23.378;2023-02-28T12:13:13;20.60;;;9.30;;
7334;SDS011;3708;42.632;23.378;2023-02-28T12:18:55;17.77;;;9.53;;
7334;SDS011;3708;42.632;23.378;2023-02-28T12:21:32;25.07;;;10.83;;
7334;SDS011;3708;42.632;23.378;2023-02-28T12:24:25;24.70;;;10.13;;
7334;SDS011;3708;42.632;23.378;2023-02-28T12:27:15;20.77;;;9.10;;
7334;SDS011;3708;42.632;23.378;2023-02-28T12:29:46;21.80;;;10.23;;
7334;SDS011;3708;42.632;23.378;2023-02-28T12:32:20;21.07;;;12.00;;
7334;SDS011;3708;42.632;23.378;2023-02-28T12:34:53;21.53;;;10.77;;
7334;SDS011;3708;42.632;23.378;2023-02-28T12:37:25;24.50;;;11.47;;
7334;SDS011;3708;42.632;23.378;2023-02-28T12:39:59;28.27;;;12.43;;
7334;SDS011;3708;42.632;23.378;2023-02-28T12:42:31;22.17;;;12.03;;
7334;SDS011;3708;42.632;23.378;2023-02-28T12:45:04;20.20;;;11.63;;
7334;SDS011;3708;42.632;23.378;2023-02-28T12:47:37;21.77;;;12.50;;
7334;SDS011;3708;42.632;23.378;2023-02-28T12:50:07;19.97;;;10.27;;
7334;SDS011;3708;42.632;23.378;2023-02-28T12:52:39;20.47;;;10.10;;
7334;SDS011;3708;42.632;23.378;2023-02-28T12:55:15;19.10;;;11.70;;
7334;SDS011;3708;42.632;23.378;2023-02-28T12:57:50;18.57;;;10.73;;
7334;SDS011;3708;42.632;23.378;2023-02-28T13:00:25;19.97;;;12.77;;
7334;SDS011;3708;42.632;23.378;2023-02-28T13:06:10;21.20;;;12.13;;
7334;SDS011;3708;42.632;23.378;2023-02-28T13:08:53;15.00;;;10.03;;
7334;SDS011;3708;42.632;23.378;2023-02-28T13:11:29;14.67;;;9.83;;
7334;SDS011;3708;42.632;23.378;2023-02-28T13:13:59;21.37;;;10.10;;
7334;SDS011;3708;42.632;23.378;2023-02-28T13:16:28;18.87;;;9.87;;
7334;SDS011;3708;42.632;23.378;2023-02-28T13:19:16;20.23;;;10.00;;
7334;SDS011;3708;42.632;23.378;2023-02-28T13:21:46;20.37;;;11.03;;
7334;SDS011;3708;42.632;23.378;2023-02-28T13:27:24;17.47;;;9.57;;
7334;SDS011;3708;42.632;23.378;2023-02-28T13:29:59;20.20;;;8.83;;
7334;SDS011;3708;42.632;23.378;2023-02-28T13:32:46;20.13;;;10.17;;
7334;SDS011;3708;42.632;23.378;2023-02-28T13:38:24;20.03;;;10.83;;
7334;SDS011;3708;42.632;23.378;2023-02-28T13:44:04;20.73;;;9.87;;
7334;SDS011;3708;42.632;23.378;2023-02-28T13:46:33;19.67;;;9.37;;
7334;SDS011;3708;42.632;23.378;2023-02-28T13:49:18;16.33;;;9.60;;
7334;SDS011;3708;42.632;23.378;2023-02-28T13:51:46;23.03;;;9.10;;
7334;SDS011;3708;42.632;23.378;2023-02-28T13:57:12;20.43;;;10.43;;
7334;SDS011;3708;42.632;23.378;2023-02-28T13:59:54;19.20;;;10.93;;
7334;SDS011;3708;42.632;23.378;2023-02-28T14:02:38;21.10;;;11.20;;
7334;SDS011;3708;42.632;23.378;2023-02-28T14:05:13;18.90;;;10.43;;
7334;SDS011;3708;42.632;23.378;2023-02-28T14:07:43;22.30;;;11.67;;
7334;SDS011;3708;42.632;23.378;2023-02-28T14:10:24;20.83;;;10.70;;
7334;SDS011;3708;42.632;23.378;2023-02-28T14:13:00;27.27;;;11.43;;
7334;SDS011;3708;42.632;23.378;2023-02-28T14:15:38;24.10;;;12.57;;
7334;SDS011;3708;42.632;23.378;2023-02-28T14:18:13;18.97;;;11.63;;
7334;SDS011;3708;42.632;23.378;2023-02-28T14:20:45;26.70;;;12.07;;
7334;SDS011;3708;42.632;23.378;2023-02-28T14:23:16;25.50;;;10.90;;
7334;SDS011;3708;42.632;23.378;2023-02-28T14:25:54;30.37;;;11.37;;
7334;SDS011;3708;42.632;23.378;2023-02-28T14:28:37;23.47;;;11.70;;
7334;SDS011;3708;42.632;23.378;2023-02-28T14:31:16;20.63;;;11.73;;
7334;SDS011;3708;42.632;23.378;2023-02-28T14:33:59;25.40;;;10.73;;
7334;SDS011;3708;42.632;23.378;2023-02-28T14:36:39;29.57;;;11.63;;
7334;SDS011;3708;42.632;23.378;2023-02-28T14:39:10;25.03;;;11.53;;
7334;SDS011;3708;42.632;23.378;2023-02-28T14:41:41;27.10;;;12.40;;
7334;SDS011;3708;42.632;23.378;2023-02-28T14:44:13;21.13;;;11.83;;
7334;SDS011;3708;42.632;23.378;2023-02-28T14:46:44;24.00;;;11.97;;
7334;SDS011;3708;42.632;23.378;2023-02-28T14:49:16;22.73;;;10.53;;
7334;SDS011;3708;42.632;23.378;2023-02-28T14:51:45;21.93;;;11.23;;
7334;SDS011;3708;42.632;23.378;2023-02-28T14:54:15;24.10;;;11.43;;
7334;SDS011;3708;42.632;23.378;2023-02-28T14:56:49;22.40;;;11.07;;
7334;SDS011;3708;42.632;23.378;2023-02-28T14:59:23;26.77;;;11.20;;
7334;SDS011;3708;42.632;23.378;2023-02-28T15:01:54;22.53;;;12.47;;
7334;SDS011;3708;42.632;23.378;2023-02-28T15:04:41;18.93;;;11.00;;
7334;SDS011;3708;42.632;23.378;2023-02-28T15:07:09;23.63;;;12.27;;
7334;SDS011;3708;42.632;23.378;2023-02-28T15:09:36;23.67;;;10.60;;
7334;SDS011;3708;42.632;23.378;2023-02-28T15:12:03;27.27;;;10.07;;
7334;SDS011;3708;42.632;23.378;2023-02-28T15:14:30;22.73;;;9.23;;
7334;SDS011;3708;42.632;23.378;2023-02-28T15:17:01;20.03;;;9.27;;
7334;SDS011;3708;42.632;23.378;2023-02-28T15:19:32;17.03;;;8.70;;
7334;SDS011;3708;42.632;23.378;2023-02-28T15:22:03;20.63;;;8.83;;
7334;SDS011;3708;42.632;23.378;2023-02-28T15:24:36;16.67;;;9.50;;
7334;SDS011;3708;42.632;23.378;2023-02-28T15:27:06;20.87;;;10.90;;
7334;SDS011;3708;42.632;23.378;2023-02-28T15:29:42;22.70;;;11.07;;